Helix, Oregon
Current Conditions -  °F | °C
As of 11:53 AM on Wednesday 17 Dec 2014 (Local Time) from KPDT Reporting Station
Haze Haze  
Wind Chill: 30°   Ceiling: 300
Heat Index: 36°   Visibility: 3mi
Dew Point: 35°   Wind: 7mph
Humidity: 97%   Direction: 330°NNW
Pressure: 29.89"   Gusts: NA
Location:  45.85°N, 118.66°W
Report Text: KPDT 171953Z 33006KT 3SM BR OVC003 02/02 A2989 RMK AO2 SLP127 T00220017
Loading
Personal Weather Stations






























Interactive Weather Map New forecast layout! Learn more

10-Day Weather Forecast

Advertisements
Track Severe Weather on mobile